sensor_id;sensor_type;location;lat;lon;timestamp;pressure;altitude;pressure_sealevel;temperature
65290;BMP180;51893;59.754;10.110;2022-08-19T00:00:11;101095.40;;;17.32
65290;BMP180;51893;59.754;10.110;2022-08-19T00:03:03;101090.00;;;17.40
65290;BMP180;51893;59.754;10.110;2022-08-19T00:05:31;101085.20;;;17.40
65290;BMP180;51893;59.754;10.110;2022-08-19T00:07:59;101077.60;;;17.40
65290;BMP180;51893;59.754;10.110;2022-08-19T00:10:27;101072.40;;;17.40
65290;BMP180;51893;59.754;10.110;2022-08-19T00:12:55;101067.80;;;17.40
65290;BMP180;51893;59.754;10.110;2022-08-19T00:15:23;101069.20;;;17.40
65290;BMP180;51893;59.754;10.110;2022-08-19T00:17:51;101065.00;;;17.40
65290;BMP180;51893;59.754;10.110;2022-08-19T00:20:21;101065.00;;;17.50
65290;BMP180;51893;59.754;10.110;2022-08-19T00:22:49;101068.60;;;17.50
65290;BMP180;51893;59.754;10.110;2022-08-19T00:25:18;101064.20;;;17.50
65290;BMP180;51893;59.754;10.110;2022-08-19T00:27:56;101065.20;;;17.50
65290;BMP180;51893;59.754;10.110;2022-08-19T00:30:25;101066.00;;;17.50
65290;BMP180;51893;59.754;10.110;2022-08-19T00:32:57;101066.20;;;17.50
65290;BMP180;51893;59.754;10.110;2022-08-19T00:35:26;101065.80;;;17.50
65290;BMP180;51893;59.754;10.110;2022-08-19T00:37:55;101065.60;;;17.50
65290;BMP180;51893;59.754;10.110;2022-08-19T00:40:23;101070.40;;;17.54
65290;BMP180;51893;59.754;10.110;2022-08-19T00:42:52;101070.00;;;17.56
65290;BMP180;51893;59.754;10.110;2022-08-19T00:45:26;101066.20;;;17.58
65290;BMP180;51893;59.754;10.110;2022-08-19T00:47:54;101062.20;;;17.60
65290;BMP180;51893;59.754;10.110;2022-08-19T00:50:22;101065.60;;;17.60
65290;BMP180;51893;59.754;10.110;2022-08-19T00:52:51;101066.20;;;17.60
65290;BMP180;51893;59.754;10.110;2022-08-19T00:55:24;101065.40;;;17.60
65290;BMP180;51893;59.754;10.110;2022-08-19T00:58:02;101069.20;;;17.60
65290;BMP180;51893;59.754;10.110;2022-08-19T01:00:32;101069.40;;;17.60
65290;BMP180;51893;59.754;10.110;2022-08-19T01:03:12;101068.80;;;17.60
65290;BMP180;51893;59.754;10.110;2022-08-19T01:05:43;101071.00;;;17.60
65290;BMP180;51893;59.754;10.110;2022-08-19T01:08:14;101070.40;;;17.60
65290;BMP180;51893;59.754;10.110;2022-08-19T01:10:50;101069.80;;;17.60
65290;BMP180;51893;59.754;10.110;2022-08-19T01:13:23;101070.40;;;17.50
65290;BMP180;51893;59.754;10.110;2022-08-19T01:16:02;101072.20;;;17.50
65290;BMP180;51893;59.754;10.110;2022-08-19T01:18:36;101076.00;;;17.48
65290;BMP180;51893;59.754;10.110;2022-08-19T01:21:15;101069.00;;;17.40
65290;BMP180;51893;59.754;10.110;2022-08-19T01:23:45;101067.60;;;17.40
65290;BMP180;51893;59.754;10.110;2022-08-19T01:26:17;101064.40;;;17.42
65290;BMP180;51893;59.754;10.110;2022-08-19T01:28:51;101063.00;;;17.40
65290;BMP180;51893;59.754;10.110;2022-08-19T01:31:25;101056.80;;;17.40
65290;BMP180;51893;59.754;10.110;2022-08-19T01:33:56;101057.20;;;17.40
65290;BMP180;51893;59.754;10.110;2022-08-19T01:39:05;101060.80;;;17.38
65290;BMP180;51893;59.754;10.110;2022-08-19T01:41:34;101052.80;;;17.30
65290;BMP180;51893;59.754;10.110;2022-08-19T01:44:05;101055.40;;;17.28
65290;BMP180;51893;59.754;10.110;2022-08-19T01:46:47;101061.40;;;17.14
65290;BMP180;51893;59.754;10.110;2022-08-19T01:49:20;101060.80;;;17.10
65290;BMP180;51893;59.754;10.110;2022-08-19T01:51:49;101064.00;;;17.00
65290;BMP180;51893;59.754;10.110;2022-08-19T01:54:20;101063.00;;;17.00
65290;BMP180;51893;59.754;10.110;2022-08-19T01:57:10;101064.40;;;16.92
65290;BMP180;51893;59.754;10.110;2022-08-19T01:59:41;101070.00;;;16.90
65290;BMP180;51893;59.754;10.110;2022-08-19T02:02:09;101077.60;;;17.00
65290;BMP180;51893;59.754;10.110;2022-08-19T02:04:38;101078.20;;;17.00
65290;BMP180;51893;59.754;10.110;2022-08-19T02:07:07;101079.40;;;17.00
65290;BMP180;51893;59.754;10.110;2022-08-19T02:09:36;101087.40;;;17.00
65290;BMP180;51893;59.754;10.110;2022-08-19T02:12:05;101090.60;;;16.90
65290;BMP180;51893;59.754;10.110;2022-08-19T02:14:36;101093.20;;;16.92
65290;BMP180;51893;59.754;10.110;2022-08-19T02:17:04;101092.20;;;17.00
65290;BMP180;51893;59.754;10.110;2022-08-19T02:19:32;101091.80;;;17.00
65290;BMP180;51893;59.754;10.110;2022-08-19T02:22:00;101096.20;;;16.90
65290;BMP180;51893;59.754;10.110;2022-08-19T02:24:28;101092.20;;;16.90
65290;BMP180;51893;59.754;10.110;2022-08-19T02:26:56;101089.60;;;16.90
65290;BMP180;51893;59.754;10.110;2022-08-19T02:29:26;101093.60;;;16.90
65290;BMP180;51893;59.754;10.110;2022-08-19T02:31:53;101094.80;;;16.90
65290;BMP180;51893;59.754;10.110;2022-08-19T02:34:21;101106.20;;;16.80
65290;BMP180;51893;59.754;10.110;2022-08-19T02:36:49;101111.80;;;16.70
65290;BMP180;51893;59.754;10.110;2022-08-19T02:39:19;101112.80;;;16.60
65290;BMP180;51893;59.754;10.110;2022-08-19T02:41:47;101107.20;;;16.60
65290;BMP180;51893;59.754;10.110;2022-08-19T02:44:14;101106.20;;;16.60
65290;BMP180;51893;59.754;10.110;2022-08-19T02:46:59;101104.80;;;16.60
65290;BMP180;51893;59.754;10.110;2022-08-19T02:49:26;101095.60;;;16.60
65290;BMP180;51893;59.754;10.110;2022-08-19T02:52:03;101096.80;;;16.60
65290;BMP180;51893;59.754;10.110;2022-08-19T02:54:30;101091.40;;;16.60
65290;BMP180;51893;59.754;10.110;2022-08-19T02:56:58;101093.40;;;16.60
65290;BMP180;51893;59.754;10.110;2022-08-19T02:59:30;101097.00;;;16.50
65290;BMP180;51893;59.754;10.110;2022-08-19T03:01:58;101100.60;;;16.40
65290;BMP180;51893;59.754;10.110;2022-08-19T03:04:26;101097.00;;;16.40
65290;BMP180;51893;59.754;10.110;2022-08-19T03:06:54;101099.60;;;16.40
65290;BMP180;51893;59.754;10.110;2022-08-19T03:09:29;101098.00;;;16.30
65290;BMP180;51893;59.754;10.110;2022-08-19T03:11:57;101097.60;;;16.26
65290;BMP180;51893;59.754;10.110;2022-08-19T03:14:25;101103.80;;;16.20
65290;BMP180;51893;59.754;10.110;2022-08-19T03:16:53;101098.20;;;16.10
65290;BMP180;51893;59.754;10.110;2022-08-19T03:19:20;101099.60;;;16.02
65290;BMP180;51893;59.754;10.110;2022-08-19T03:21:52;101108.00;;;16.00
65290;BMP180;51893;59.754;10.110;2022-08-19T03:24:20;101113.40;;;15.90
65290;BMP180;51893;59.754;10.110;2022-08-19T03:26:52;101114.20;;;15.90
65290;BMP180;51893;59.754;10.110;2022-08-19T03:29:29;101115.60;;;15.88
65290;BMP180;51893;59.754;10.110;2022-08-19T03:32:03;101121.60;;;15.80
65290;BMP180;51893;59.754;10.110;2022-08-19T03:34:34;101127.20;;;15.70
65290;BMP180;51893;59.754;10.110;2022-08-19T03:37:10;101127.00;;;15.70
65290;BMP180;51893;59.754;10.110;2022-08-19T03:39:42;101127.40;;;15.70
65290;BMP180;51893;59.754;10.110;2022-08-19T03:42:11;101129.40;;;15.70
65290;BMP180;51893;59.754;10.110;2022-08-19T03:44:59;101129.00;;;15.70
65290;BMP180;51893;59.754;10.110;2022-08-19T03:47:27;101127.40;;;15.60
65290;BMP180;51893;59.754;10.110;2022-08-19T03:49:55;101128.00;;;15.60
65290;BMP180;51893;59.754;10.110;2022-08-19T03:52:23;101130.40;;;15.50
65290;BMP180;51893;59.754;10.110;2022-08-19T03:54:50;101129.20;;;15.46
65290;BMP180;51893;59.754;10.110;2022-08-19T03:57:19;101128.60;;;15.40
65290;BMP180;51893;59.754;10.110;2022-08-19T03:59:50;101125.00;;;15.40
65290;BMP180;51893;59.754;10.110;2022-08-19T04:02:18;101129.80;;;15.40
65290;BMP180;51893;59.754;10.110;2022-08-19T04:04:46;101126.40;;;15.40
65290;BMP180;51893;59.754;10.110;2022-08-19T04:07:14;101129.80;;;15.40
65290;BMP180;51893;59.754;10.110;2022-08-19T04:09:43;101132.40;;;15.40
65290;BMP180;51893;59.754;10.110;2022-08-19T04:12:11;101131.80;;;15.42
65290;BMP180;51893;59.754;10.110;2022-08-19T04:14:39;101135.40;;;15.50
65290;BMP180;51893;59.754;10.110;2022-08-19T04:17:07;101138.20;;;15.48
65290;BMP180;51893;59.754;10.110;2022-08-19T04:19:36;101138.80;;;15.40
65290;BMP180;51893;59.754;10.110;2022-08-19T04:22:05;101149.80;;;15.30
65290;BMP180;51893;59.754;10.110;2022-08-19T04:24:34;101155.20;;;15.20
65290;BMP180;51893;59.754;10.110;2022-08-19T04:27:02;101153.00;;;15.20
65290;BMP180;51893;59.754;10.110;2022-08-19T04:29:30;101146.80;;;15.10
65290;BMP180;51893;59.754;10.110;2022-08-19T04:31:59;101149.60;;;15.00
65290;BMP180;51893;59.754;10.110;2022-08-19T04:34:37;101144.40;;;15.00
65290;BMP180;51893;59.754;10.110;2022-08-19T04:37:26;101135.40;;;15.00
65290;BMP180;51893;59.754;10.110;2022-08-19T04:40:05;101133.20;;;15.00
65290;BMP180;51893;59.754;10.110;2022-08-19T04:42:52;101136.40;;;15.00
65290;BMP180;51893;59.754;10.110;2022-08-19T04:45:22;101150.40;;;15.00
65290;BMP180;51893;59.754;10.110;2022-08-19T04:47:55;101152.40;;;15.00
65290;BMP180;51893;59.754;10.110;2022-08-19T04:50:46;101161.00;;;15.00
65290;BMP180;51893;59.754;10.110;2022-08-19T04:53:15;101153.40;;;14.98
65290;BMP180;51893;59.754;10.110;2022-08-19T04:55:43;101147.60;;;14.90
65290;BMP180;51893;59.754;10.110;2022-08-19T04:58:11;101146.00;;;14.90
65290;BMP180;51893;59.754;10.110;2022-08-19T05:00:39;101146.00;;;14.90
65290;BMP180;51893;59.754;10.110;2022-08-19T05:03:07;101150.20;;;14.90
65290;BMP180;51893;59.754;10.110;2022-08-19T05:05:43;101163.40;;;14.92
65290;BMP180;51893;59.754;10.110;2022-08-19T05:08:15;101178.00;;;15.00
65290;BMP180;51893;59.754;10.110;2022-08-19T05:10:58;101171.60;;;15.00
65290;BMP180;51893;59.754;10.110;2022-08-19T05:13:26;101171.20;;;15.00
65290;BMP180;51893;59.754;10.110;2022-08-19T05:15:57;101173.40;;;15.06
65290;BMP180;51893;59.754;10.110;2022-08-19T05:18:26;101177.60;;;15.10
65290;BMP180;51893;59.754;10.110;2022-08-19T05:21:17;101185.20;;;15.10
65290;BMP180;51893;59.754;10.110;2022-08-19T05:24:06;101190.80;;;15.14
65290;BMP180;51893;59.754;10.110;2022-08-19T05:26:50;101190.40;;;15.20
65290;BMP180;51893;59.754;10.110;2022-08-19T05:29:21;101191.60;;;15.20
65290;BMP180;51893;59.754;10.110;2022-08-19T05:31:52;101199.20;;;15.20
65290;BMP180;51893;59.754;10.110;2022-08-19T05:34:23;101199.40;;;15.20
65290;BMP180;51893;59.754;10.110;2022-08-19T05:36:57;101194.60;;;15.30
65290;BMP180;51893;59.754;10.110;2022-08-19T05:39:29;101193.60;;;15.40
65290;BMP180;51893;59.754;10.110;2022-08-19T05:42:03;101187.80;;;15.40
65290;BMP180;51893;59.754;10.110;2022-08-19T05:44:39;101187.80;;;15.50
65290;BMP180;51893;59.754;10.110;2022-08-19T05:47:13;101186.00;;;15.58
65290;BMP180;51893;59.754;10.110;2022-08-19T05:49:43;101179.80;;;15.60
65290;BMP180;51893;59.754;10.110;2022-08-19T05:52:14;101175.40;;;15.70
65290;BMP180;51893;59.754;10.110;2022-08-19T05:54:46;101172.60;;;15.70
65290;BMP180;51893;59.754;10.110;2022-08-19T05:57:19;101177.80;;;15.80
65290;BMP180;51893;59.754;10.110;2022-08-19T05:59:46;101177.20;;;15.90
65290;BMP180;51893;59.754;10.110;2022-08-19T06:02:19;101165.60;;;15.88
65290;BMP180;51893;59.754;10.110;2022-08-19T06:04:47;101163.60;;;15.90
65290;BMP180;51893;59.754;10.110;2022-08-19T06:07:15;101166.40;;;15.92
65290;BMP180;51893;59.754;10.110;2022-08-19T06:09:44;101164.00;;;16.00
65290;BMP180;51893;59.754;10.110;2022-08-19T06:12:29;101169.80;;;16.10
65290;BMP180;51893;59.754;10.110;2022-08-19T06:15:05;101175.80;;;16.10
65290;BMP180;51893;59.754;10.110;2022-08-19T06:17:33;101173.80;;;16.14
65290;BMP180;51893;59.754;10.110;2022-08-19T06:20:06;101177.60;;;16.20
65290;BMP180;51893;59.754;10.110;2022-08-19T06:22:44;101174.20;;;16.20
65290;BMP180;51893;59.754;10.110;2022-08-19T06:25:14;101176.00;;;16.30
65290;BMP180;51893;59.754;10.110;2022-08-19T06:27:43;101179.20;;;16.30
65290;BMP180;51893;59.754;10.110;2022-08-19T06:30:31;101182.20;;;16.30
65290;BMP180;51893;59.754;10.110;2022-08-19T06:33:00;101184.80;;;16.40
65290;BMP180;51893;59.754;10.110;2022-08-19T06:35:28;101188.40;;;16.40
65290;BMP180;51893;59.754;10.110;2022-08-19T06:37:56;101190.80;;;16.40
65290;BMP180;51893;59.754;10.110;2022-08-19T06:40:25;101188.20;;;16.40
65290;BMP180;51893;59.754;10.110;2022-08-19T06:42:54;101186.40;;;16.40
65290;BMP180;51893;59.754;10.110;2022-08-19T06:45:24;101192.60;;;16.50
65290;BMP180;51893;59.754;10.110;2022-08-19T06:48:02;101192.80;;;16.50
65290;BMP180;51893;59.754;10.110;2022-08-19T06:50:30;101188.60;;;16.60
65290;BMP180;51893;59.754;10.110;2022-08-19T06:52:58;101190.20;;;16.60
65290;BMP180;51893;59.754;10.110;2022-08-19T06:55:31;101186.80;;;16.60
65290;BMP180;51893;59.754;10.110;2022-08-19T06:58:04;101195.60;;;16.70
65290;BMP180;51893;59.754;10.110;2022-08-19T07:00:32;101202.80;;;16.70
65290;BMP180;51893;59.754;10.110;2022-08-19T07:03:01;101195.60;;;16.80
65290;BMP180;51893;59.754;10.110;2022-08-19T07:05:41;101195.00;;;16.80
65290;BMP180;51893;59.754;10.110;2022-08-19T07:08:13;101201.40;;;16.80
65290;BMP180;51893;59.754;10.110;2022-08-19T07:10:45;101202.60;;;16.70
65290;BMP180;51893;59.754;10.110;2022-08-19T07:13:13;101198.60;;;16.70
65290;BMP180;51893;59.754;10.110;2022-08-19T07:15:41;101200.40;;;16.70
65290;BMP180;51893;59.754;10.110;2022-08-19T07:18:09;101201.00;;;16.70
65290;BMP180;51893;59.754;10.110;2022-08-19T07:20:40;101204.60;;;16.70
65290;BMP180;51893;59.754;10.110;2022-08-19T07:23:09;101209.20;;;16.70
65290;BMP180;51893;59.754;10.110;2022-08-19T07:25:43;101206.80;;;16.70
65290;BMP180;51893;59.754;10.110;2022-08-19T07:28:19;101213.00;;;16.80
65290;BMP180;51893;59.754;10.110;2022-08-19T07:30:52;101211.80;;;16.80
65290;BMP180;51893;59.754;10.110;2022-08-19T07:33:22;101212.80;;;16.90
65290;BMP180;51893;59.754;10.110;2022-08-19T07:35:49;101214.60;;;17.00
65290;BMP180;51893;59.754;10.110;2022-08-19T07:38:17;101216.00;;;17.10
65290;BMP180;51893;59.754;10.110;2022-08-19T07:40:45;101220.20;;;17.16
65290;BMP180;51893;59.754;10.110;2022-08-19T07:43:14;101226.60;;;17.20
65290;BMP180;51893;59.754;10.110;2022-08-19T07:45:45;101229.00;;;17.20
65290;BMP180;51893;59.754;10.110;2022-08-19T07:48:14;101234.20;;;17.22
65290;BMP180;51893;59.754;10.110;2022-08-19T07:50:42;101237.20;;;17.30
65290;BMP180;51893;59.754;10.110;2022-08-19T07:53:10;101246.80;;;17.30
65290;BMP180;51893;59.754;10.110;2022-08-19T07:55:39;101251.00;;;17.30
65290;BMP180;51893;59.754;10.110;2022-08-19T07:58:14;101258.00;;;17.40
65290;BMP180;51893;59.754;10.110;2022-08-19T08:00:45;101257.40;;;17.40
65290;BMP180;51893;59.754;10.110;2022-08-19T08:03:17;101253.60;;;17.50
65290;BMP180;51893;59.754;10.110;2022-08-19T08:05:46;101261.80;;;17.58
65290;BMP180;51893;59.754;10.110;2022-08-19T08:08:33;101265.20;;;17.70
65290;BMP180;51893;59.754;10.110;2022-08-19T08:11:20;101261.40;;;17.70
65290;BMP180;51893;59.754;10.110;2022-08-19T08:13:50;101267.80;;;17.80
65290;BMP180;51893;59.754;10.110;2022-08-19T08:16:29;101271.40;;;17.90
65290;BMP180;51893;59.754;10.110;2022-08-19T08:18:59;101275.40;;;18.00
65290;BMP180;51893;59.754;10.110;2022-08-19T08:21:27;101280.40;;;18.10
65290;BMP180;51893;59.754;10.110;2022-08-19T08:23:55;101283.40;;;18.20
65290;BMP180;51893;59.754;10.110;2022-08-19T08:26:24;101283.80;;;18.32
65290;BMP180;51893;59.754;10.110;2022-08-19T08:28:53;101286.80;;;18.44
65290;BMP180;51893;59.754;10.110;2022-08-19T08:31:21;101291.40;;;18.60
65290;BMP180;51893;59.754;10.110;2022-08-19T08:33:49;101289.40;;;18.72
65290;BMP180;51893;59.754;10.110;2022-08-19T08:36:17;101286.20;;;18.90
65290;BMP180;51893;59.754;10.110;2022-08-19T08:38:46;101288.80;;;19.00
65290;BMP180;51893;59.754;10.110;2022-08-19T08:44:02;101291.00;;;19.10
65290;BMP180;51893;59.754;10.110;2022-08-19T08:46:46;101288.20;;;19.16
65290;BMP180;51893;59.754;10.110;2022-08-19T08:52:07;101290.40;;;19.30
65290;BMP180;51893;59.754;10.110;2022-08-19T08:54:42;101289.80;;;19.40
65290;BMP180;51893;59.754;10.110;2022-08-19T09:00:44;101308.20;;;19.50
65290;BMP180;51893;59.754;10.110;2022-08-19T09:03:26;101314.20;;;19.50
65290;BMP180;51893;59.754;10.110;2022-08-19T09:12:00;101325.00;;;19.66
65290;BMP180;51893;59.754;10.110;2022-08-19T09:17:24;101325.00;;;19.80
65290;BMP180;51893;59.754;10.110;2022-08-19T09:20:22;101325.80;;;19.80
65290;BMP180;51893;59.754;10.110;2022-08-19T09:22:53;101326.40;;;20.00
65290;BMP180;51893;59.754;10.110;2022-08-19T09:25:22;101327.40;;;20.00
65290;BMP180;51893;59.754;10.110;2022-08-19T09:27:56;101330.20;;;20.10
65290;BMP180;51893;59.754;10.110;2022-08-19T09:30:36;101329.80;;;20.30
65290;BMP180;51893;59.754;10.110;2022-08-19T09:33:07;101329.40;;;20.40
65290;BMP180;51893;59.754;10.110;2022-08-19T09:35:35;101332.40;;;20.44
65290;BMP180;51893;59.754;10.110;2022-08-19T09:38:21;101334.40;;;20.60
65290;BMP180;51893;59.754;10.110;2022-08-19T09:40:49;101335.60;;;20.70
65290;BMP180;51893;59.754;10.110;2022-08-19T09:43:17;101344.00;;;20.72
65290;BMP180;51893;59.754;10.110;2022-08-19T09:46:05;101342.80;;;20.80
65290;BMP180;51893;59.754;10.110;2022-08-19T09:48:38;101345.40;;;20.88
65290;BMP180;51893;59.754;10.110;2022-08-19T09:51:10;101347.80;;;20.80
65290;BMP180;51893;59.754;10.110;2022-08-19T09:53:39;101350.20;;;20.90
65290;BMP180;51893;59.754;10.110;2022-08-19T09:56:07;101353.40;;;20.90
65290;BMP180;51893;59.754;10.110;2022-08-19T09:58:36;101352.80;;;21.00
65290;BMP180;51893;59.754;10.110;2022-08-19T10:01:07;101353.00;;;21.06
65290;BMP180;51893;59.754;10.110;2022-08-19T10:03:36;101356.60;;;21.10
65290;BMP180;51893;59.754;10.110;2022-08-19T10:06:05;101353.20;;;21.20
65290;BMP180;51893;59.754;10.110;2022-08-19T10:08:45;101361.40;;;21.20
65290;BMP180;51893;59.754;10.110;2022-08-19T10:11:19;101362.20;;;21.30
65290;BMP180;51893;59.754;10.110;2022-08-19T10:14:03;101353.40;;;21.30
65290;BMP180;51893;59.754;10.110;2022-08-19T10:16:36;101354.20;;;21.30
65290;BMP180;51893;59.754;10.110;2022-08-19T10:19:06;101360.80;;;21.30
65290;BMP180;51893;59.754;10.110;2022-08-19T10:21:34;101359.80;;;21.30
65290;BMP180;51893;59.754;10.110;2022-08-19T10:24:04;101359.60;;;21.30
65290;BMP180;51893;59.754;10.110;2022-08-19T10:26:36;101359.60;;;21.32
65290;BMP180;51893;59.754;10.110;2022-08-19T10:29:05;101354.20;;;21.40
65290;BMP180;51893;59.754;10.110;2022-08-19T10:31:36;101360.20;;;21.40
65290;BMP180;51893;59.754;10.110;2022-08-19T10:34:24;101360.00;;;21.50
65290;BMP180;51893;59.754;10.110;2022-08-19T10:36:57;101354.60;;;21.50
65290;BMP180;51893;59.754;10.110;2022-08-19T10:39:34;101349.80;;;21.50
65290;BMP180;51893;59.754;10.110;2022-08-19T10:42:10;101348.00;;;21.50
65290;BMP180;51893;59.754;10.110;2022-08-19T10:44:41;101343.80;;;21.54
65290;BMP180;51893;59.754;10.110;2022-08-19T10:47:10;101345.40;;;21.60
65290;BMP180;51893;59.754;10.110;2022-08-19T10:49:54;101346.80;;;21.60
65290;BMP180;51893;59.754;10.110;2022-08-19T10:52:46;101350.40;;;21.56
65290;BMP180;51893;59.754;10.110;2022-08-19T10:55:22;101351.80;;;21.60
65290;BMP180;51893;59.754;10.110;2022-08-19T10:58:15;101356.40;;;21.60
65290;BMP180;51893;59.754;10.110;2022-08-19T11:00:54;101360.00;;;21.60
65290;BMP180;51893;59.754;10.110;2022-08-19T11:03:24;101361.20;;;21.70
65290;BMP180;51893;59.754;10.110;2022-08-19T11:06:06;101362.60;;;21.70
65290;BMP180;51893;59.754;10.110;2022-08-19T11:08:36;101359.00;;;21.80
65290;BMP180;51893;59.754;10.110;2022-08-19T11:11:07;101361.20;;;21.86
65290;BMP180;51893;59.754;10.110;2022-08-19T11:13:41;101366.00;;;21.88
65290;BMP180;51893;59.754;10.110;2022-08-19T11:16:19;101364.60;;;21.80
65290;BMP180;51893;59.754;10.110;2022-08-19T11:18:53;101361.80;;;21.80
65290;BMP180;51893;59.754;10.110;2022-08-19T11:21:35;101367.40;;;21.80
65290;BMP180;51893;59.754;10.110;2022-08-19T11:24:16;101369.00;;;21.80
65290;BMP180;51893;59.754;10.110;2022-08-19T11:26:44;101370.80;;;21.80
65290;BMP180;51893;59.754;10.110;2022-08-19T11:29:13;101373.00;;;21.80
65290;BMP180;51893;59.754;10.110;2022-08-19T11:31:45;101374.60;;;21.80
65290;BMP180;51893;59.754;10.110;2022-08-19T11:34:20;101378.00;;;21.70
65290;BMP180;51893;59.754;10.110;2022-08-19T11:36:51;101371.40;;;21.80
65290;BMP180;51893;59.754;10.110;2022-08-19T11:39:21;101370.20;;;21.80
65290;BMP180;51893;59.754;10.110;2022-08-19T11:41:50;101366.40;;;21.80
65290;BMP180;51893;59.754;10.110;2022-08-19T11:44:19;101369.80;;;21.90
65290;BMP180;51893;59.754;10.110;2022-08-19T11:46:47;101374.40;;;21.90
65290;BMP180;51893;59.754;10.110;2022-08-19T11:49:18;101377.60;;;22.00
65290;BMP180;51893;59.754;10.110;2022-08-19T11:51:48;101378.80;;;22.00
65290;BMP180;51893;59.754;10.110;2022-08-19T11:54:17;101376.00;;;22.00
65290;BMP180;51893;59.754;10.110;2022-08-19T11:56:45;101382.80;;;22.00
65290;BMP180;51893;59.754;10.110;2022-08-19T11:59:15;101384.20;;;22.00
65290;BMP180;51893;59.754;10.110;2022-08-19T12:01:43;101380.80;;;22.00
65290;BMP180;51893;59.754;10.110;2022-08-19T12:04:11;101383.40;;;22.00
65290;BMP180;51893;59.754;10.110;2022-08-19T12:06:40;101387.40;;;22.00
65290;BMP180;51893;59.754;10.110;2022-08-19T12:09:10;101383.20;;;22.10
65290;BMP180;51893;59.754;10.110;2022-08-19T12:11:39;101384.80;;;22.10
65290;BMP180;51893;59.754;10.110;2022-08-19T12:14:12;101381.00;;;22.20
65290;BMP180;51893;59.754;10.110;2022-08-19T12:16:45;101384.00;;;22.20
65290;BMP180;51893;59.754;10.110;2022-08-19T12:19:18;101381.80;;;22.30
65290;BMP180;51893;59.754;10.110;2022-08-19T12:21:51;101378.00;;;22.30
65290;BMP180;51893;59.754;10.110;2022-08-19T12:24:20;101374.20;;;22.40
65290;BMP180;51893;59.754;10.110;2022-08-19T12:26:51;101382.60;;;22.48
65290;BMP180;51893;59.754;10.110;2022-08-19T12:29:21;101384.00;;;22.50
65290;BMP180;51893;59.754;10.110;2022-08-19T12:31:58;101383.00;;;22.60
65290;BMP180;51893;59.754;10.110;2022-08-19T12:34:32;101384.80;;;22.62
65290;BMP180;51893;59.754;10.110;2022-08-19T12:37:03;101387.60;;;22.70
65290;BMP180;51893;59.754;10.110;2022-08-19T12:39:41;101383.80;;;22.70
65290;BMP180;51893;59.754;10.110;2022-08-19T12:42:12;101374.20;;;22.70
65290;BMP180;51893;59.754;10.110;2022-08-19T12:44:42;101377.60;;;22.60
65290;BMP180;51893;59.754;10.110;2022-08-19T12:47:12;101373.80;;;22.70
65290;BMP180;51893;59.754;10.110;2022-08-19T12:49:42;101373.40;;;22.70
65290;BMP180;51893;59.754;10.110;2022-08-19T12:52:24;101375.40;;;22.70
65290;BMP180;51893;59.754;10.110;2022-08-19T12:54:55;101375.20;;;22.70
65290;BMP180;51893;59.754;10.110;2022-08-19T12:57:27;101369.40;;;22.70
65290;BMP180;51893;59.754;10.110;2022-08-19T13:00:06;101359.00;;;22.70
65290;BMP180;51893;59.754;10.110;2022-08-19T13:02:41;101354.80;;;22.70
65290;BMP180;51893;59.754;10.110;2022-08-19T13:05:12;101353.40;;;22.70
65290;BMP180;51893;59.754;10.110;2022-08-19T13:07:42;101361.80;;;22.70
65290;BMP180;51893;59.754;10.110;2022-08-19T13:10:19;101362.40;;;22.70
65290;BMP180;51893;59.754;10.110;2022-08-19T13:12:51;101364.80;;;22.72
65290;BMP180;51893;59.754;10.110;2022-08-19T13:15:22;101356.80;;;22.86
65290;BMP180;51893;59.754;10.110;2022-08-19T13:17:54;101358.20;;;23.00
65290;BMP180;51893;59.754;10.110;2022-08-19T13:20:24;101353.80;;;23.20
65290;BMP180;51893;59.754;10.110;2022-08-19T13:22:54;101355.80;;;23.20
65290;BMP180;51893;59.754;10.110;2022-08-19T13:25:22;101356.80;;;23.22
65290;BMP180;51893;59.754;10.110;2022-08-19T13:27:51;101355.80;;;23.30
65290;BMP180;51893;59.754;10.110;2022-08-19T13:30:20;101356.80;;;23.20
65290;BMP180;51893;59.754;10.110;2022-08-19T13:33:08;101355.80;;;23.30
65290;BMP180;51893;59.754;10.110;2022-08-19T13:35:58;101357.20;;;23.40
65290;BMP180;51893;59.754;10.110;2022-08-19T13:38:28;101348.20;;;23.50
65290;BMP180;51893;59.754;10.110;2022-08-19T13:41:05;101343.40;;;23.60
65290;BMP180;51893;59.754;10.110;2022-08-19T13:43:39;101341.80;;;23.64
65290;BMP180;51893;59.754;10.110;2022-08-19T13:46:12;101336.40;;;23.70
65290;BMP180;51893;59.754;10.110;2022-08-19T13:48:42;101333.40;;;23.80
65290;BMP180;51893;59.754;10.110;2022-08-19T13:51:10;101332.60;;;23.70
65290;BMP180;51893;59.754;10.110;2022-08-19T13:53:39;101330.00;;;23.72
65290;BMP180;51893;59.754;10.110;2022-08-19T13:56:18;101335.60;;;23.80
65290;BMP180;51893;59.754;10.110;2022-08-19T13:58:53;101336.80;;;23.80
65290;BMP180;51893;59.754;10.110;2022-08-19T14:01:26;101333.60;;;23.80
65290;BMP180;51893;59.754;10.110;2022-08-19T14:03:54;101343.60;;;23.90
65290;BMP180;51893;59.754;10.110;2022-08-19T14:06:22;101343.00;;;23.90
65290;BMP180;51893;59.754;10.110;2022-08-19T14:08:50;101342.60;;;24.00
65290;BMP180;51893;59.754;10.110;2022-08-19T14:11:18;101338.40;;;24.00
65290;BMP180;51893;59.754;10.110;2022-08-19T14:13:46;101342.40;;;24.00
65290;BMP180;51893;59.754;10.110;2022-08-19T14:16:16;101340.00;;;24.02
65290;BMP180;51893;59.754;10.110;2022-08-19T14:18:43;101343.80;;;24.04
65290;BMP180;51893;59.754;10.110;2022-08-19T14:21:21;101343.40;;;24.00
65290;BMP180;51893;59.754;10.110;2022-08-19T14:23:51;101342.00;;;23.90
65290;BMP180;51893;59.754;10.110;2022-08-19T14:26:21;101342.60;;;23.80
65290;BMP180;51893;59.754;10.110;2022-08-19T14:28:51;101347.00;;;23.80
65290;BMP180;51893;59.754;10.110;2022-08-19T14:31:20;101344.60;;;23.80